Time;durP1;ratioP1;P1;durP2;ratioP2;P2;SDS_P1;SDS_P2;PMS_P1;PMS_P2;Temp;Humidity;BMP_temperature;BMP_pressure;BME280_temperature;BME280_humidity;BME280_pressure;Samples;Min_cycle;Max_cycle;Signal;HPM_P1;HPM_P2
2023/12/26 00:01:45;;;;;;;1999.90;999.90;;;;;;;5.01;68.35;96428.78;5072368;28;20414;-63
2023/12/26 00:04:13;;;;;;;1999.90;999.90;;;;;;;4.95;68.16;96436.66;5072662;28;20197;-66
2023/12/26 00:06:46;;;;;;;1999.90;999.90;;;;;;;4.84;68.90;96431.69;5072321;28;20044;-63
2023/12/26 00:09:15;;;;;;;1999.90;999.90;;;;;;;4.79;68.92;96437.78;5073391;28;20123;-63
2023/12/26 00:11:44;;;;;;;1999.90;999.90;;;;;;;4.77;69.47;96446.47;5075952;28;20044;-63
2023/12/26 00:14:12;;;;;;;1999.90;999.90;;;;;;;4.72;69.25;96445.72;5075668;28;20067;-65
2023/12/26 00:16:44;;;;;;;1999.90;999.90;;;;;;;4.74;69.25;96437.00;5075733;28;20053;-62
2023/12/26 00:19:11;;;;;;;1999.90;999.90;;;;;;;4.79;69.35;96447.31;5075802;28;20040;-66
2023/12/26 00:21:39;;;;;;;1999.90;999.90;;;;;;;4.68;69.72;96447.47;5075652;28;20054;-64
2023/12/26 00:24:07;;;;;;;1999.90;999.90;;;;;;;4.65;69.84;96455.28;5075625;28;20451;-63
2023/12/26 00:26:37;;;;;;;1999.90;999.90;;;;;;;4.60;70.15;96455.38;5075680;28;20129;-63
2023/12/26 00:29:04;;;;;;;1999.90;999.90;;;;;;;4.68;69.81;96463.03;5075679;28;20098;-64
2023/12/26 00:31:31;;;;;;;1999.90;999.90;;;;;;;4.71;69.35;96459.53;5075767;28;20098;-63
2023/12/26 00:34:00;;;;;;;1999.90;999.90;;;;;;;4.70;68.96;96458.69;5075850;28;20071;-61
2023/12/26 00:36:27;;;;;;;1999.90;999.90;;;;;;;4.69;68.95;96462.13;5075509;28;20051;-62
2023/12/26 00:38:57;;;;;;;1999.90;999.90;;;;;;;4.70;69.29;96463.88;5075378;28;20048;-63
2023/12/26 00:41:25;;;;;;;1999.90;999.90;;;;;;;4.66;69.30;96455.28;5075392;28;20048;-65
2023/12/26 00:43:54;;;;;;;1999.90;999.90;;;;;;;4.66;69.38;96465.63;5075301;28;20048;-63
2023/12/26 00:46:22;;;;;;;1999.90;999.90;;;;;;;4.69;69.08;96480.28;5075429;28;20548;-65
2023/12/26 00:48:49;;;;;;;1999.90;999.90;;;;;;;4.66;69.08;96480.31;5075579;28;20045;-62
2023/12/26 00:51:18;;;;;;;1999.90;999.90;;;;;;;4.67;68.93;96482.88;5075249;28;20045;-66
2023/12/26 00:53:45;;;;;;;1999.90;999.90;;;;;;;4.66;69.13;96486.38;5075145;28;20538;-63
2023/12/26 00:56:12;;;;;;;1999.90;999.90;;;;;;;4.59;69.28;96483.88;5075134;28;20433;-65
2023/12/26 00:58:40;;;;;;;1999.90;999.90;;;;;;;4.46;69.97;96488.41;5075027;28;20071;-62
2023/12/26 01:01:07;;;;;;;1999.90;999.90;;;;;;;4.41;70.27;96488.47;5075109;28;20490;-63
2023/12/26 01:03:34;;;;;;;1999.90;999.90;;;;;;;4.41;69.44;96493.66;5075007;28;20052;-65
2023/12/26 01:06:02;;;;;;;1999.90;999.90;;;;;;;4.48;69.06;96502.19;5075020;28;20044;-64
2023/12/26 01:08:30;;;;;;;1999.90;999.90;;;;;;;4.45;69.42;96494.47;5075049;28;20088;-63
2023/12/26 01:10:57;;;;;;;1999.90;999.90;;;;;;;4.40;69.94;96497.13;5074983;28;20060;-66
2023/12/26 01:13:25;;;;;;;1999.90;999.90;;;;;;;4.35;70.45;96499.78;5074736;28;20048;-64
2023/12/26 01:15:52;;;;;;;1999.90;999.90;;;;;;;4.25;70.50;96503.38;5074689;28;20054;-63
2023/12/26 01:18:19;;;;;;;1999.90;999.90;;;;;;;4.29;70.28;96499.84;5074699;28;20055;-64
2023/12/26 01:20:46;;;;;;;1999.90;999.90;;;;;;;4.27;70.18;96492.09;5073613;28;20044;-62
2023/12/26 01:23:13;;;;;;;1999.90;999.90;;;;;;;4.30;70.42;96502.41;5074559;28;20090;-64
2023/12/26 01:25:42;;;;;;;1999.90;999.90;;;;;;;4.33;70.29;96511.88;5074495;28;20048;-66
2023/12/26 01:28:09;;;;;;;1999.90;999.90;;;;;;;4.39;70.22;96513.53;5074572;28;20552;-64
2023/12/26 01:30:38;;;;;;;1999.90;999.90;;;;;;;4.38;70.08;96514.41;5074519;28;20052;-66
2023/12/26 01:33:06;;;;;;;1999.90;999.90;;;;;;;4.38;70.25;96504.91;5074358;28;20498;-63
2023/12/26 01:35:34;;;;;;;1999.90;999.90;;;;;;;4.32;70.28;96499.81;5074590;28;20059;-63
2023/12/26 01:38:02;;;;;;;1999.90;999.90;;;;;;;4.37;69.86;96508.34;5074191;28;20078;-64
2023/12/26 01:40:29;;;;;;;1999.90;999.90;;;;;;;4.34;69.39;96497.22;5074357;28;20044;-64
2023/12/26 01:42:58;;;;;;;1999.90;999.90;;;;;;;4.22;69.63;96501.69;5074226;28;20059;-65
2023/12/26 01:45:25;;;;;;;1999.90;999.90;;;;;;;4.20;70.16;96497.38;5074123;28;20060;-67
2023/12/26 01:47:56;;;;;;;1999.90;999.90;;;;;;;4.26;70.30;96498.16;5074048;28;20059;-66
2023/12/26 01:50:24;;;;;;;1999.90;999.90;;;;;;;4.17;70.34;96498.28;5074004;28;20052;-63
2023/12/26 01:52:52;;;;;;;1999.90;999.90;;;;;;;4.13;70.19;96500.03;5073915;28;20098;-64
2023/12/26 01:55:20;;;;;;;1999.90;999.90;;;;;;;4.01;70.41;96502.81;5073920;28;20044;-63
2023/12/26 01:57:48;;;;;;;1999.90;999.90;;;;;;;3.99;70.83;96494.19;5073742;28;20106;-65
2023/12/26 02:00:18;;;;;;;1999.90;999.90;;;;;;;3.87;71.14;96490.03;5074037;28;20048;-65
2023/12/26 02:02:46;;;;;;;1999.90;999.90;;;;;;;3.85;71.58;96494.38;5074096;28;20050;-64
2023/12/26 02:05:13;;;;;;;1999.90;999.90;;;;;;;3.67;71.65;96483.34;5073773;28;20045;-64
2023/12/26 02:07:41;;;;;;;1999.90;999.90;;;;;;;3.66;71.77;96481.63;5073740;28;20044;-63
2023/12/26 02:10:09;;;;;;;1999.90;999.90;;;;;;;3.61;72.21;96486.88;5073722;28;20048;-64
2023/12/26 02:12:36;;;;;;;1999.90;999.90;;;;;;;3.60;72.05;96480.00;5073638;28;20433;-66
2023/12/26 02:15:04;;;;;;;1999.90;999.90;;;;;;;3.52;71.92;96481.78;5073497;28;20109;-65
2023/12/26 02:17:33;;;;;;;1999.90;999.90;;;;;;;3.46;72.73;96489.63;5073406;28;20080;-65
2023/12/26 02:20:00;;;;;;;1999.90;999.90;;;;;;;3.47;72.95;96487.03;5073288;28;20094;-63
2023/12/26 02:22:29;;;;;;;1999.90;999.90;;;;;;;3.48;73.79;96488.72;5073401;28;20041;-64
2023/12/26 02:24:57;;;;;;;1999.90;999.90;;;;;;;3.45;73.20;96488.75;5073433;28;20091;-64
2023/12/26 02:27:26;;;;;;;1999.90;999.90;;;;;;;3.47;72.94;96488.75;5073342;28;20071;-65
2023/12/26 02:29:54;;;;;;;1999.90;999.90;;;;;;;3.36;74.13;96496.59;5073211;28;20099;-61
2023/12/26 02:32:25;;;;;;;1999.90;999.90;;;;;;;3.37;74.88;96491.44;5072982;28;20044;-64
2023/12/26 02:34:55;;;;;;;1999.90;999.90;;;;;;;3.41;74.16;96493.09;5073324;28;20490;-64
2023/12/26 02:37:24;;;;;;;1999.90;999.90;;;;;;;3.43;73.74;96493.09;5073172;28;20048;-65
2023/12/26 02:39:51;;;;;;;1999.90;999.90;;;;;;;3.39;73.87;96494.00;5073354;28;20482;-65
2023/12/26 02:42:21;;;;;;;1999.90;999.90;;;;;;;3.37;74.34;96493.19;5073297;28;20045;-64
2023/12/26 02:44:48;;;;;;;1999.90;999.90;;;;;;;3.33;74.94;96489.75;5073193;28;20053;-66
2023/12/26 02:47:16;;;;;;;1999.90;999.90;;;;;;;3.43;74.46;96489.66;5073132;28;20055;-66
2023/12/26 02:49:43;;;;;;;1999.90;999.90;;;;;;;3.40;74.67;96491.41;5073277;28;20049;-64
2023/12/26 02:52:11;;;;;;;1999.90;999.90;;;;;;;3.49;74.93;96498.19;5073042;28;20620;-66
2023/12/26 02:54:38;;;;;;;1999.90;999.90;;;;;;;3.59;75.24;96505.88;5073079;28;20048;-64
2023/12/26 02:57:06;;;;;;;1999.90;999.90;;;;;;;3.60;74.48;96492.91;5073110;28;20041;-62
2023/12/26 02:59:34;;;;;;;1999.90;999.90;;;;;;;3.62;74.17;96505.84;5072902;28;20129;-66
2023/12/26 03:02:01;;;;;;;1999.90;999.90;;;;;;;3.63;74.28;96507.53;5073032;28;20049;-65
2023/12/26 03:04:28;;;;;;;1999.90;999.90;;;;;;;3.69;73.70;96510.06;5073043;28;20044;-65
2023/12/26 03:06:56;;;;;;;1999.90;999.90;;;;;;;3.64;73.22;96511.84;5072958;28;20049;-65
2023/12/26 03:09:23;;;;;;;1999.90;999.90;;;;;;;3.57;73.59;96510.19;5072986;28;20049;-63
2023/12/26 03:11:50;;;;;;;1999.90;999.90;;;;;;;3.59;73.45;96508.47;5072981;28;20084;-66
2023/12/26 03:14:17;;;;;;;1999.90;999.90;;;;;;;3.54;73.95;96508.50;5072837;28;20133;-64
2023/12/26 03:16:46;;;;;;;1999.90;999.90;;;;;;;3.47;74.25;96517.19;5072786;28;20127;-64
2023/12/26 03:19:13;;;;;;;1999.90;999.90;;;;;;;3.46;74.11;96515.50;5072703;28;20052;-62
2023/12/26 03:21:40;;;;;;;1999.90;999.90;;;;;;;3.28;74.38;96513.06;5072849;28;20048;-65
2023/12/26 03:24:07;;;;;;;1999.90;999.90;;;;;;;3.29;74.72;96508.75;5072854;28;20094;-64
2023/12/26 03:26:34;;;;;;;1999.90;999.90;;;;;;;3.25;75.14;96514.84;5072821;28;20040;-63
2023/12/26 03:29:01;;;;;;;1999.90;999.90;;;;;;;3.27;74.92;96520.84;5072623;28;20458;-65
2023/12/26 03:31:28;;;;;;;1999.90;999.90;;;;;;;3.21;75.00;96526.91;5072907;28;20040;-64
2023/12/26 03:33:57;;;;;;;1999.90;999.90;;;;;;;3.11;74.70;96525.28;5072564;28;20053;-63
2023/12/26 03:36:24;;;;;;;1999.90;999.90;;;;;;;3.07;76.36;96529.63;5072811;28;20052;-62
2023/12/26 03:38:51;;;;;;;1999.90;999.90;;;;;;;3.05;76.36;96525.34;5072674;28;20056;-65
2023/12/26 03:41:18;;;;;;;1999.90;999.90;;;;;;;3.07;76.90;96528.78;5072663;28;20079;-62
2023/12/26 03:43:45;;;;;;;1999.90;999.90;;;;;;;2.98;76.80;96540.06;5072914;28;20786;-63
2023/12/26 03:46:13;;;;;;;1999.90;999.90;;;;;;;2.97;76.41;96533.16;5076325;28;20113;-62
2023/12/26 03:48:40;;;;;;;1999.90;999.90;;;;;;;2.98;76.73;96535.72;5076676;28;20041;-63
2023/12/26 03:51:08;;;;;;;1999.90;999.90;;;;;;;2.94;75.90;96534.03;5076358;28;20074;-63
2023/12/26 03:53:35;;;;;;;1999.90;999.90;;;;;;;2.94;76.42;96548.66;5076291;28;20098;-64
2023/12/26 03:56:02;;;;;;;1999.90;999.90;;;;;;;3.03;76.46;96549.47;5076264;28;20098;-64
2023/12/26 03:58:29;;;;;;;1999.90;999.90;;;;;;;2.99;77.61;96550.38;5076072;28;20060;-65
2023/12/26 04:00:56;;;;;;;1999.90;999.90;;;;;;;2.89;77.69;96557.31;5076350;28;20079;-64
2023/12/26 04:03:24;;;;;;;1999.90;999.90;;;;;;;2.96;77.75;96527.13;5076221;28;20053;-64
2023/12/26 04:05:51;;;;;;;1999.90;999.90;;;;;;;2.94;77.58;96530.56;5076058;28;20048;-63
2023/12/26 04:08:20;;;;;;;1999.90;999.90;;;;;;;2.96;77.60;96529.72;5076285;28;20091;-65
2023/12/26 04:10:47;;;;;;;1999.90;999.90;;;;;;;3.03;77.35;96539.13;5076044;28;20045;-64
2023/12/26 04:13:15;;;;;;;1999.90;999.90;;;;;;;3.06;77.88;96535.66;5075979;28;20449;-60
2023/12/26 04:15:42;;;;;;;1999.90;999.90;;;;;;;3.08;77.58;96541.69;5075859;28;20060;-62
2023/12/26 04:18:09;;;;;;;1999.90;999.90;;;;;;;3.12;77.64;96538.19;5075717;28;20516;-61
2023/12/26 04:20:37;;;;;;;1999.90;999.90;;;;;;;3.13;76.65;96537.31;5075553;28;20409;-65
2023/12/26 04:23:05;;;;;;;1999.90;999.90;;;;;;;3.05;77.01;96539.13;5075718;28;20123;-64
2023/12/26 04:25:34;;;;;;;1999.90;999.90;;;;;;;3.05;76.46;96546.88;5075721;28;20132;-65
2023/12/26 04:28:01;;;;;;;1999.90;999.90;;;;;;;2.97;76.81;96548.66;5075601;28;20052;-62
2023/12/26 04:30:28;;;;;;;1999.90;999.90;;;;;;;2.90;77.43;96548.72;5075853;28;20052;-65
2023/12/26 04:32:55;;;;;;;1999.90;999.90;;;;;;;2.91;78.22;96552.16;5075603;28;20555;-63
2023/12/26 04:35:23;;;;;;;1999.90;999.90;;;;;;;2.99;78.14;96549.50;5075455;28;20487;-64
2023/12/26 04:37:50;;;;;;;1999.90;999.90;;;;;;;2.93;78.21;96552.13;5075476;28;20483;-63
2023/12/26 04:40:17;;;;;;;1999.90;999.90;;;;;;;2.90;78.28;96559.06;5075562;28;20057;-63
2023/12/26 04:42:44;;;;;;;1999.90;999.90;;;;;;;2.88;77.92;96558.19;5075674;28;20080;-62
2023/12/26 04:45:12;;;;;;;1999.90;999.90;;;;;;;2.83;77.77;96564.28;5075696;28;20045;-64
2023/12/26 04:47:39;;;;;;;1999.90;999.90;;;;;;;2.80;78.64;96556.53;5075344;28;20040;-63
2023/12/26 04:50:07;;;;;;;1999.90;999.90;;;;;;;2.75;79.41;96549.69;5075287;28;20045;-62
2023/12/26 04:52:34;;;;;;;1999.90;999.90;;;;;;;2.82;79.60;96563.41;5075292;28;20049;-64
2023/12/26 04:55:02;;;;;;;1999.90;999.90;;;;;;;2.90;79.67;96555.59;5075038;28;20513;-65
2023/12/26 04:57:31;;;;;;;1999.90;999.90;;;;;;;2.90;79.34;96564.22;5075155;28;20058;-62
2023/12/26 04:59:59;;;;;;;1999.90;999.90;;;;;;;2.89;79.65;96567.66;5075038;28;20098;-61
2023/12/26 05:02:26;;;;;;;1999.90;999.90;;;;;;;2.94;78.67;96569.34;5074989;28;20076;-64
2023/12/26 05:04:54;;;;;;;1999.90;999.90;;;;;;;2.88;78.50;96567.66;5074973;28;20044;-65
2023/12/26 05:07:22;;;;;;;1999.90;999.90;;;;;;;2.80;78.47;96570.28;5074870;28;20517;-62
2023/12/26 05:09:49;;;;;;;1999.90;999.90;;;;;;;2.75;79.49;96574.66;5074904;28;20086;-64
2023/12/26 05:12:20;;;;;;;1999.90;999.90;;;;;;;2.77;79.80;96571.19;5074791;28;20044;-63
2023/12/26 05:14:48;;;;;;;1999.90;999.90;;;;;;;2.82;79.72;96573.75;5074751;28;20132;-61
2023/12/26 05:17:18;;;;;;;1999.90;999.90;;;;;;;2.82;79.99;96578.03;5074755;28;20051;-61
2023/12/26 05:19:45;;;;;;;1999.90;999.90;;;;;;;2.94;79.81;96587.44;5074342;28;20139;-65
2023/12/26 05:22:13;;;;;;;1999.90;999.90;;;;;;;2.96;79.03;96580.53;5074677;28;20052;-64
2023/12/26 05:24:41;;;;;;;1999.90;999.90;;;;;;;2.92;78.68;96584.84;5074591;28;20075;-65
2023/12/26 05:27:09;;;;;;;1999.90;999.90;;;;;;;2.89;78.61;96584.91;5074661;28;20052;-65
2023/12/26 05:29:37;;;;;;;1999.90;999.90;;;;;;;2.83;78.56;96578.03;5074469;28;20045;-64
2023/12/26 05:32:08;;;;;;;1999.90;999.90;;;;;;;2.73;78.83;96585.00;5074694;28;20052;-64
2023/12/26 05:34:36;;;;;;;;;;;;;;;2.71;79.57;96585.88;5074941;28;20113;-65
2023/12/26 05:37:05;;;;;;;1999.90;999.90;;;;;;;2.55;80.25;96583.38;5074435;28;19974;-64
2023/12/26 05:39:32;;;;;;;1999.90;999.90;;;;;;;2.58;80.75;96585.06;5074207;28;20102;-65
2023/12/26 05:42:02;;;;;;;1999.90;999.90;;;;;;;2.52;80.65;96597.16;5074042;28;20084;-61
2023/12/26 05:44:30;;;;;;;1999.90;999.90;;;;;;;2.61;80.95;96591.09;5074223;28;20055;-64
2023/12/26 05:47:02;;;;;;;1999.90;999.90;;;;;;;2.70;80.45;96590.19;5074064;28;20059;-64
2023/12/26 05:49:31;;;;;;;1999.90;999.90;;;;;;;2.78;80.14;96603.94;5074142;28;20110;-63
2023/12/26 05:52:00;;;;;;;1999.90;999.90;;;;;;;2.84;79.45;96604.75;5073914;28;20136;-64
2023/12/26 05:54:28;;;;;;;1999.90;999.90;;;;;;;2.85;79.42;96599.56;5074079;28;20051;-62
2023/12/26 05:56:56;;;;;;;1999.90;999.90;;;;;;;2.87;79.16;96600.44;5073929;28;20101;-64
2023/12/26 05:59:24;;;;;;;1999.90;999.90;;;;;;;2.94;78.51;96616.72;5073807;28;20091;-61
2023/12/26 06:01:52;;;;;;;1999.90;999.90;;;;;;;2.91;78.02;96606.41;5073953;28;20105;-65
2023/12/26 06:04:20;;;;;;;1999.90;999.90;;;;;;;2.87;78.50;96615.06;5073911;28;20080;-62
2023/12/26 06:06:47;;;;;;;1999.90;999.90;;;;;;;2.83;78.60;96624.53;5073142;28;20049;-64
2023/12/26 06:09:17;;;;;;;1999.90;999.90;;;;;;;2.80;78.71;96616.81;5073722;28;20071;-61
2023/12/26 06:11:45;;;;;;;1999.90;999.90;;;;;;;2.80;79.06;96615.97;5073645;28;20497;-63
2023/12/26 06:14:12;;;;;;;1999.90;999.90;;;;;;;2.81;78.82;96620.25;5073649;28;20105;-63
2023/12/26 06:16:41;;;;;;;1999.90;999.90;;;;;;;2.82;79.14;96617.66;5073579;28;20044;-63
2023/12/26 06:19:10;;;;;;;1999.90;999.90;;;;;;;2.82;79.07;96614.22;5073355;28;20049;-61
2023/12/26 06:21:38;;;;;;;1999.90;999.90;;;;;;;2.84;79.39;96621.13;5073715;28;20114;-62
2023/12/26 06:24:06;;;;;;;1999.90;999.90;;;;;;;2.97;79.46;96627.06;5073502;28;20052;-63
2023/12/26 06:26:35;;;;;;;1999.90;999.90;;;;;;;3.18;80.09;96630.34;5073638;28;20456;-63
2023/12/26 06:29:02;;;;;;;1999.90;999.90;;;;;;;4.08;79.24;96633.03;5073511;28;20137;-62
2023/12/26 06:31:30;;;;;;;1999.90;999.90;;;;;;;5.76;73.06;96627.28;5073364;28;20040;-64
2023/12/26 06:33:58;;;;;;;1999.90;999.90;;;;;;;7.68;65.91;96639.75;5073274;28;20453;-62
2023/12/26 06:36:27;;;;;;;1999.90;999.90;;;;;;;9.54;58.45;96646.81;5073314;28;20110;-65
2023/12/26 06:39:00;;;;;;;1999.90;999.90;;;;;;;11.29;52.88;96640.69;5073428;28;20052;-64
2023/12/26 06:41:32;;;;;;;1999.90;999.90;;;;;;;12.81;48.15;96640.50;5073290;28;20045;-64
2023/12/26 06:44:03;;;;;;;1999.90;999.90;;;;;;;14.18;44.22;96649.78;5073278;28;20418;-62
2023/12/26 06:46:30;;;;;;;;;;;;;;;15.38;40.75;96653.25;5073573;28;20048;-65
2023/12/26 06:48:58;;;;;;;1999.90;999.90;;;;;;;16.41;37.94;96660.59;5073042;28;20382;-63
2023/12/26 06:51:50;;;;;;;1999.90;999.90;;;;;;;17.42;36.37;96653.59;5073127;28;20056;-65
2023/12/26 06:54:18;;;;;;;1999.90;999.90;;;;;;;18.28;34.67;96656.00;5073229;28;20045;-63
2023/12/26 06:56:45;;;;;;;1999.90;999.90;;;;;;;18.98;34.07;96653.03;5073098;28;20486;-64
2023/12/26 06:59:15;;;;;;;1999.90;999.90;;;;;;;19.85;32.34;96662.78;5072971;28;20131;-65
2023/12/26 07:01:50;;;;;;;1999.90;999.90;;;;;;;20.53;31.28;96667.50;5073085;28;20044;-61
2023/12/26 07:04:17;;;;;;;1999.90;999.90;;;;;;;21.19;30.38;96667.81;5073019;28;20045;-63
2023/12/26 07:06:46;;;;;;;1999.90;999.90;;;;;;;21.89;29.02;96666.72;5073002;28;20402;-62
2023/12/26 07:09:14;;;;;;;1999.90;999.90;;;;;;;22.47;27.59;96660.16;5072955;28;20052;-65
2023/12/26 07:11:41;;;;;;;1999.90;999.90;;;;;;;22.93;26.76;96666.06;5072842;28;20053;-62
2023/12/26 07:14:08;;;;;;;1999.90;999.90;;;;;;;23.37;27.55;96674.81;5072887;28;20044;-62
2023/12/26 07:16:37;;;;;;;1999.90;999.90;;;;;;;23.62;26.54;96669.97;5072864;28;20047;-62
2023/12/26 07:19:05;;;;;;;1999.90;999.90;;;;;;;23.92;26.32;96674.38;5073577;28;20056;-65
2023/12/26 07:21:33;;;;;;;1999.90;999.90;;;;;;;24.28;24.91;96671.16;5076995;28;20494;-64
2023/12/26 07:24:03;;;;;;;1999.90;999.90;;;;;;;24.72;24.77;96677.84;5076845;28;20391;-64
2023/12/26 07:26:30;;;;;;;1999.90;999.90;;;;;;;25.21;24.48;96676.88;5076702;28;20052;-62
2023/12/26 07:28:58;;;;;;;1999.90;999.90;;;;;;;25.84;24.25;96671.75;5076747;28;20072;-66
2023/12/26 07:31:26;;;;;;;1999.90;999.90;;;;;;;26.36;22.72;96670.25;5076655;28;20044;-63
2023/12/26 07:33:56;;;;;;;1999.90;999.90;;;;;;;26.82;21.79;96671.91;5076783;28;20045;-61
2023/12/26 07:36:24;;;;;;;1999.90;999.90;;;;;;;26.84;21.49;96675.28;5076879;28;20148;-62
2023/12/26 07:38:51;;;;;;;1999.90;999.90;;;;;;;27.16;20.92;96676.50;5076603;28;20285;-65
2023/12/26 07:41:19;;;;;;;51.28;48.25;;;;;;;27.31;21.08;96675.88;5076664;28;20053;-66
2023/12/26 07:43:47;;;;;;;47.75;44.92;;;;;;;27.34;21.89;96668.38;5076706;28;20049;-67
2023/12/26 07:46:22;;;;;;;45.00;42.20;;;;;;;27.68;21.53;96669.31;5076393;28;20084;-61
2023/12/26 07:48:57;;;;;;;41.90;39.13;;;;;;;28.09;20.87;96673.94;5076390;28;20449;-64
2023/12/26 07:51:33;;;;;;;46.80;43.40;;;;;;;28.36;20.20;96671.13;5076226;28;20127;-65
2023/12/26 07:54:07;;;;;;;49.05;45.97;;;;;;;28.20;20.14;96674.63;5076170;28;20058;-64
2023/12/26 07:56:34;;;;;;;51.72;48.28;;;;;;;27.96;20.55;96673.59;5076214;28;20143;-64
2023/12/26 07:59:02;;;;;;;51.25;47.75;;;;;;;28.33;19.69;96682.22;5076125;28;20048;-63
2023/12/26 08:01:31;;;;;;;47.00;44.05;;;;;;;28.58;19.44;96683.06;5076211;28;20101;-65
2023/12/26 08:04:03;;;;;;;50.63;47.63;;;;;;;28.91;19.13;96681.31;5076107;28;20054;-66
2023/12/26 08:06:32;;;;;;;47.28;44.53;;;;;;;29.06;19.39;96674.25;5076046;28;20066;-67
2023/12/26 08:09:02;;;;;;;40.38;37.72;;;;;;;29.41;19.69;96670.44;5076077;28;20072;-61
2023/12/26 08:11:29;;;;;;;35.10;32.90;;;;;;;29.48;19.53;96674.94;5075975;28;20049;-64
2023/12/26 08:13:57;;;;;;;35.00;32.50;;;;;;;29.74;19.01;96673.81;5075831;28;20518;-64
2023/12/26 08:16:25;;;;;;;31.42;29.40;;;;;;;29.73;18.98;96674.00;5075911;28;20074;-64
2023/12/26 08:18:54;;;;;;;33.20;31.17;;;;;;;29.68;18.91;96685.31;5075750;28;20449;-63
2023/12/26 08:21:22;;;;;;;34.03;31.80;;;;;;;29.37;18.94;96680.69;5076073;28;20114;-63
2023/12/26 08:23:49;;;;;;;31.55;29.08;;;;;;;29.51;18.97;96684.53;5075728;28;20504;-65
2023/12/26 08:26:17;;;;;;;31.77;29.67;;;;;;;29.89;18.30;96683.84;5075660;28;20457;-62
2023/12/26 08:28:45;;;;;;;33.35;31.13;;;;;;;30.10;17.76;96683.19;5075705;28;20054;-61
2023/12/26 08:31:14;;;;;;;31.67;29.08;;;;;;;30.44;17.41;96682.97;5075088;28;20127;-65
2023/12/26 08:33:41;;;;;;;34.92;32.60;;;;;;;29.17;18.32;96682.97;5075558;28;20094;-63
2023/12/26 08:36:09;;;;;;;35.67;33.30;;;;;;;28.29;20.07;96683.53;5075605;28;20075;-67
2023/12/26 08:38:39;;;;;;;42.85;40.30;;;;;;;27.03;20.99;96674.22;5076052;28;20048;-66
2023/12/26 08:41:10;;;;;;;;;;;;;;;26.10;22.39;96676.38;5075872;28;20055;-65
2023/12/26 08:43:39;;;;;;;37.70;35.17;;;;;;;25.41;23.28;96669.59;5075349;28;19920;-62
2023/12/26 08:46:06;;;;;;;43.45;40.85;;;;;;;24.82;22.53;96670.66;5075426;28;20091;-66
2023/12/26 08:48:33;;;;;;;50.42;46.92;;;;;;;24.02;23.91;96673.53;5075349;28;20105;-66
2023/12/26 08:51:01;;;;;;;52.47;49.15;;;;;;;23.65;24.18;96667.88;5075447;28;20083;-66
2023/12/26 08:53:28;;;;;;;53.50;50.35;;;;;;;23.14;24.51;96659.00;5075515;28;20048;-66
2023/12/26 08:55:56;;;;;;;52.22;48.90;;;;;;;22.84;25.74;96670.38;5075271;28;20464;-64
2023/12/26 08:58:27;;;;;;;54.78;51.47;;;;;;;22.90;25.60;96662.84;5075270;28;20041;-63
2023/12/26 09:00:53;;;;;;;;;;;;;;;23.08;25.23;96658.53;5075618;28;20057;-62
2023/12/26 09:03:20;;;;;;;57.03;52.97;;;;;;;23.22;24.66;96652.00;5075146;28;19959;-63
2023/12/26 09:05:48;;;;;;;58.38;54.97;;;;;;;22.92;24.92;96648.38;5075095;28;20110;-64
2023/12/26 09:08:16;;;;;;;1514.60;763.72;;;;;;;22.31;25.53;96645.47;5075054;28;20049;-66
2023/12/26 09:10:44;;;;;;;1999.90;999.90;;;;;;;21.71;26.71;96640.63;5074863;28;20052;-62
2023/12/26 09:13:12;;;;;;;1999.90;999.90;;;;;;;21.03;27.05;96613.19;5074780;28;20092;-63
2023/12/26 09:15:41;;;;;;;1999.90;999.90;;;;;;;20.06;28.85;96640.94;5074810;28;20048;-66
2023/12/26 09:18:09;;;;;;;1999.90;999.90;;;;;;;19.53;29.26;96635.00;5074888;28;20041;-63
2023/12/26 09:20:37;;;;;;;1999.90;999.90;;;;;;;19.02;30.45;96628.03;5074716;28;20056;-64
2023/12/26 09:23:05;;;;;;;1999.90;999.90;;;;;;;18.90;30.74;96630.56;5074598;28;20524;-63
2023/12/26 09:25:32;;;;;;;1999.90;999.90;;;;;;;18.75;30.23;96618.41;5074546;28;20040;-65
2023/12/26 09:28:00;;;;;;;1999.90;999.90;;;;;;;18.44;30.62;96624.03;5074539;28;20044;-61
2023/12/26 09:30:29;;;;;;;1999.90;999.90;;;;;;;18.35;31.42;96622.00;5074569;28;20106;-66
2023/12/26 09:32:56;;;;;;;1999.90;999.90;;;;;;;18.25;31.97;96614.72;5074502;28;20045;-64
2023/12/26 09:35:24;;;;;;;1999.90;999.90;;;;;;;18.11;32.29;96613.00;5074442;28;20044;-63
2023/12/26 09:37:51;;;;;;;1999.90;999.90;;;;;;;18.03;32.34;96604.72;5074369;28;20120;-65
2023/12/26 09:40:19;;;;;;;1999.90;999.90;;;;;;;18.09;32.23;96604.28;5074355;28;20045;-63
2023/12/26 09:42:47;;;;;;;1999.90;999.90;;;;;;;18.00;32.91;96596.97;5073669;28;20529;-64
2023/12/26 09:45:14;;;;;;;1999.90;999.90;;;;;;;17.93;32.94;96594.75;5074256;28;20094;-66
2023/12/26 09:47:44;;;;;;;1999.90;999.90;;;;;;;18.03;32.33;96600.25;5074174;28;20044;-66
2023/12/26 09:50:12;;;;;;;1999.90;999.90;;;;;;;17.98;32.27;96593.56;5074199;28;20084;-64
2023/12/26 09:52:44;;;;;;;1999.90;999.90;;;;;;;17.86;32.57;96590.81;5074040;28;20045;-65
2023/12/26 09:55:12;;;;;;;1999.90;999.90;;;;;;;17.59;32.75;96596.97;5074153;28;20040;-66
2023/12/26 09:57:43;;;;;;;1999.90;999.90;;;;;;;17.58;32.63;96592.63;5074015;28;20044;-65
2023/12/26 10:00:15;;;;;;;1999.90;999.90;;;;;;;17.45;34.28;96586.47;5073732;28;20044;-63
2023/12/26 10:02:45;;;;;;;1999.90;999.90;;;;;;;17.40;35.10;96581.47;5073877;28;20045;-62
2023/12/26 10:05:13;;;;;;;1999.90;999.90;;;;;;;17.39;34.21;96583.25;5073808;28;20045;-61
2023/12/26 10:07:41;;;;;;;1999.90;999.90;;;;;;;17.36;34.52;96587.88;5073775;28;20478;-62
2023/12/26 10:10:12;;;;;;;1999.90;999.90;;;;;;;17.35;34.63;96579.13;5073991;28;20398;-63
2023/12/26 10:12:41;;;;;;;1999.90;999.90;;;;;;;17.39;34.68;96572.69;5073704;28;20478;-61
2023/12/26 10:15:11;;;;;;;1999.90;999.90;;;;;;;17.38;35.00;96568.34;5073700;28;20047;-62
2023/12/26 10:17:42;;;;;;;1999.90;999.90;;;;;;;17.36;34.47;96564.09;5073713;28;20122;-65
2023/12/26 10:20:12;;;;;;;1999.90;999.90;;;;;;;17.32;34.15;96570.53;5073474;28;20059;-66
2023/12/26 10:22:43;;;;;;;1999.90;999.90;;;;;;;17.24;34.28;96563.97;5073595;28;20044;-65
2023/12/26 10:25:11;;;;;;;1999.90;999.90;;;;;;;17.16;34.31;96563.63;5073691;28;20040;-64
2023/12/26 10:27:39;;;;;;;1999.90;999.90;;;;;;;17.09;35.36;96559.66;5073353;28;20474;-65
2023/12/26 10:30:07;;;;;;;1999.90;999.90;;;;;;;16.99;35.66;96551.44;5073437;28;20094;-63
2023/12/26 10:32:36;;;;;;;1999.90;999.90;;;;;;;16.97;35.19;96551.53;5073427;28;20059;-63
2023/12/26 10:35:18;;;;;;;1999.90;999.90;;;;;;;16.88;34.99;96552.97;5073450;28;20060;-63
2023/12/26 10:37:45;;;;;;;1999.90;999.90;;;;;;;16.88;34.80;96544.19;5073429;28;20059;-67
2023/12/26 10:40:14;;;;;;;1999.90;999.90;;;;;;;16.91;35.27;96542.22;5073315;28;20052;-60
2023/12/26 10:42:42;;;;;;;1999.90;999.90;;;;;;;16.85;34.63;96532.03;5073271;28;20379;-62
2023/12/26 10:45:11;;;;;;;1999.90;999.90;;;;;;;16.84;34.75;96529.50;5073187;28;20052;-65
2023/12/26 10:47:45;;;;;;;1999.90;999.90;;;;;;;16.89;34.34;96533.53;5073279;28;20048;-66
2023/12/26 10:50:14;;;;;;;1999.90;999.90;;;;;;;16.76;34.11;96532.59;5073241;28;20059;-60
2023/12/26 10:55:29;;;;;;;1999.90;999.90;;;;;;;16.72;34.04;96525.84;5073204;28;20067;-66
2023/12/26 10:58:16;;;;;;;1999.90;999.90;;;;;;;16.79;34.46;96524.50;5073100;28;20134;-64
2023/12/26 11:15:53;;;;;;;1999.90;999.90;;;;;;;16.61;34.06;96514.16;5073009;28;20071;-63
2023/12/26 11:18:21;;;;;;;1999.90;999.90;;;;;;;16.64;34.38;96511.31;5073154;28;20048;-63
2023/12/26 11:24:29;;;;;;;1999.90;999.90;;;;;;;16.66;33.93;96498.03;5072954;28;20048;-61
2023/12/26 11:27:32;;;;;;;1999.90;999.90;;;;;;;16.71;34.07;96497.75;5072802;28;20502;-65
2023/12/26 11:33:41;;;;;;;1999.90;999.90;;;;;;;16.70;34.04;96490.78;5072853;28;20047;-62